sensor_id;sensor_type;location;lat;lon;timestamp;temperature;humidity
51655;DHT22;37732;53.106;7.030;2023-07-09T00:02:01;19.60;99.90
51655;DHT22;37732;53.106;7.030;2023-07-09T00:04:28;19.60;99.90
51655;DHT22;37732;53.106;7.030;2023-07-09T00:06:55;19.60;99.90
51655;DHT22;37732;53.106;7.030;2023-07-09T00:09:22;19.70;99.90
51655;DHT22;37732;53.106;7.030;2023-07-09T00:11:49;19.60;99.90
51655;DHT22;37732;53.106;7.030;2023-07-09T00:14:17;19.60;99.90
51655;DHT22;37732;53.106;7.030;2023-07-09T00:16:44;19.60;99.90
51655;DHT22;37732;53.106;7.030;2023-07-09T00:19:17;19.60;99.90
51655;DHT22;37732;53.106;7.030;2023-07-09T00:21:44;19.60;99.90
51655;DHT22;37732;53.106;7.030;2023-07-09T00:24:12;19.60;99.90
51655;DHT22;37732;53.106;7.030;2023-07-09T00:26:38;19.50;99.90
51655;DHT22;37732;53.106;7.030;2023-07-09T00:29:11;19.50;99.90
51655;DHT22;37732;53.106;7.030;2023-07-09T00:31:37;19.50;99.90
51655;DHT22;37732;53.106;7.030;2023-07-09T00:34:08;19.50;99.90
51655;DHT22;37732;53.106;7.030;2023-07-09T00:36:37;19.50;99.90
51655;DHT22;37732;53.106;7.030;2023-07-09T00:39:03;19.50;99.90
51655;DHT22;37732;53.106;7.030;2023-07-09T00:41:34;19.40;99.90
51655;DHT22;37732;53.106;7.030;2023-07-09T00:49:15;19.30;99.90
51655;DHT22;37732;53.106;7.030;2023-07-09T00:51:45;19.30;99.90
51655;DHT22;37732;53.106;7.030;2023-07-09T00:54:36;19.30;99.90
51655;DHT22;37732;53.106;7.030;2023-07-09T00:57:12;19.30;99.90
51655;DHT22;37732;53.106;7.030;2023-07-09T00:59:39;19.30;99.90
51655;DHT22;37732;53.106;7.030;2023-07-09T01:02:07;19.20;99.90
51655;DHT22;37732;53.106;7.030;2023-07-09T01:04:33;19.20;99.90
51655;DHT22;37732;53.106;7.030;2023-07-09T01:07:00;19.20;99.90
51655;DHT22;37732;53.106;7.030;2023-07-09T01:09:26;19.20;99.90
51655;DHT22;37732;53.106;7.030;2023-07-09T01:11:52;19.10;99.90
51655;DHT22;37732;53.106;7.030;2023-07-09T01:14:22;19.10;99.90
51655;DHT22;37732;53.106;7.030;2023-07-09T01:17:02;19.10;99.90
51655;DHT22;37732;53.106;7.030;2023-07-09T01:19:35;19.20;99.90
51655;DHT22;37732;53.106;7.030;2023-07-09T01:22:05;19.10;99.90
51655;DHT22;37732;53.106;7.030;2023-07-09T01:27:16;19.20;99.90
51655;DHT22;37732;53.106;7.030;2023-07-09T01:29:43;19.20;99.90
51655;DHT22;37732;53.106;7.030;2023-07-09T01:32:09;19.20;99.90
51655;DHT22;37732;53.106;7.030;2023-07-09T01:34:35;19.20;99.90
51655;DHT22;37732;53.106;7.030;2023-07-09T01:37:01;19.20;99.90
51655;DHT22;37732;53.106;7.030;2023-07-09T01:39:27;19.20;99.90
51655;DHT22;37732;53.106;7.030;2023-07-09T01:41:56;19.20;99.90
51655;DHT22;37732;53.106;7.030;2023-07-09T01:44:22;19.20;99.90
51655;DHT22;37732;53.106;7.030;2023-07-09T01:46:49;19.20;99.90
51655;DHT22;37732;53.106;7.030;2023-07-09T01:49:14;19.10;99.90
51655;DHT22;37732;53.106;7.030;2023-07-09T01:51:42;19.00;99.90
51655;DHT22;37732;53.106;7.030;2023-07-09T01:54:08;18.90;99.90
51655;DHT22;37732;53.106;7.030;2023-07-09T01:56:33;18.80;99.90
51655;DHT22;37732;53.106;7.030;2023-07-09T01:59:00;18.80;99.90
51655;DHT22;37732;53.106;7.030;2023-07-09T02:01:30;18.80;99.90
51655;DHT22;37732;53.106;7.030;2023-07-09T02:03:56;18.70;99.90
51655;DHT22;37732;53.106;7.030;2023-07-09T02:06:21;18.70;99.90
51655;DHT22;37732;53.106;7.030;2023-07-09T02:08:50;18.70;99.90
51655;DHT22;37732;53.106;7.030;2023-07-09T02:11:16;18.60;99.90
51655;DHT22;37732;53.106;7.030;2023-07-09T02:13:41;18.60;99.90
51655;DHT22;37732;53.106;7.030;2023-07-09T02:16:07;18.60;99.90
51655;DHT22;37732;53.106;7.030;2023-07-09T02:18:34;18.50;99.90
51655;DHT22;37732;53.106;7.030;2023-07-09T02:21:00;18.40;99.90
51655;DHT22;37732;53.106;7.030;2023-07-09T02:23:27;18.40;99.90
51655;DHT22;37732;53.106;7.030;2023-07-09T02:25:53;18.40;99.90
51655;DHT22;37732;53.106;7.030;2023-07-09T02:28:19;18.30;99.90
51655;DHT22;37732;53.106;7.030;2023-07-09T02:30:45;18.30;99.90
51655;DHT22;37732;53.106;7.030;2023-07-09T02:33:10;18.30;99.90
51655;DHT22;37732;53.106;7.030;2023-07-09T02:35:36;18.30;99.90
51655;DHT22;37732;53.106;7.030;2023-07-09T02:38:02;18.30;99.90
51655;DHT22;37732;53.106;7.030;2023-07-09T02:40:28;18.30;99.90
51655;DHT22;37732;53.106;7.030;2023-07-09T02:42:54;18.30;99.90
51655;DHT22;37732;53.106;7.030;2023-07-09T02:45:20;18.40;99.90
51655;DHT22;37732;53.106;7.030;2023-07-09T02:47:46;18.30;99.90
51655;DHT22;37732;53.106;7.030;2023-07-09T02:50:11;18.30;99.90
51655;DHT22;37732;53.106;7.030;2023-07-09T02:52:37;18.20;99.90
51655;DHT22;37732;53.106;7.030;2023-07-09T02:55:03;18.20;99.90
51655;DHT22;37732;53.106;7.030;2023-07-09T02:57:29;18.10;99.90
51655;DHT22;37732;53.106;7.030;2023-07-09T02:59:54;18.10;99.90
51655;DHT22;37732;53.106;7.030;2023-07-09T03:02:20;18.00;99.90
51655;DHT22;37732;53.106;7.030;2023-07-09T03:04:46;18.00;99.90
51655;DHT22;37732;53.106;7.030;2023-07-09T03:07:11;18.00;99.90
51655;DHT22;37732;53.106;7.030;2023-07-09T03:09:37;18.00;99.90
51655;DHT22;37732;53.106;7.030;2023-07-09T03:12:03;18.00;99.90
51655;DHT22;37732;53.106;7.030;2023-07-09T03:14:29;17.90;99.90
51655;DHT22;37732;53.106;7.030;2023-07-09T03:16:54;17.90;99.90
51655;DHT22;37732;53.106;7.030;2023-07-09T03:19:21;17.80;99.90
51655;DHT22;37732;53.106;7.030;2023-07-09T03:21:47;17.80;99.90
51655;DHT22;37732;53.106;7.030;2023-07-09T03:24:13;17.80;99.90
51655;DHT22;37732;53.106;7.030;2023-07-09T03:26:44;17.80;99.90
51655;DHT22;37732;53.106;7.030;2023-07-09T03:29:10;17.80;99.90
51655;DHT22;37732;53.106;7.030;2023-07-09T03:31:36;17.70;99.90
51655;DHT22;37732;53.106;7.030;2023-07-09T03:34:02;17.70;99.90
51655;DHT22;37732;53.106;7.030;2023-07-09T03:36:28;17.70;99.90
51655;DHT22;37732;53.106;7.030;2023-07-09T03:38:54;17.70;99.90
51655;DHT22;37732;53.106;7.030;2023-07-09T03:41:19;17.80;99.90
51655;DHT22;37732;53.106;7.030;2023-07-09T03:43:45;17.80;99.90
51655;DHT22;37732;53.106;7.030;2023-07-09T03:46:11;17.80;99.90
51655;DHT22;37732;53.106;7.030;2023-07-09T03:48:37;17.80;99.90
51655;DHT22;37732;53.106;7.030;2023-07-09T03:51:03;17.80;99.90
51655;DHT22;37732;53.106;7.030;2023-07-09T03:53:29;17.80;99.90
51655;DHT22;37732;53.106;7.030;2023-07-09T03:55:55;17.80;99.90
51655;DHT22;37732;53.106;7.030;2023-07-09T03:58:22;17.90;99.90
51655;DHT22;37732;53.106;7.030;2023-07-09T04:00:48;17.90;99.90
51655;DHT22;37732;53.106;7.030;2023-07-09T04:03:14;17.90;99.90
51655;DHT22;37732;53.106;7.030;2023-07-09T04:05:40;17.90;99.90
51655;DHT22;37732;53.106;7.030;2023-07-09T04:08:05;18.00;99.90
51655;DHT22;37732;53.106;7.030;2023-07-09T04:10:31;17.90;99.90
51655;DHT22;37732;53.106;7.030;2023-07-09T04:12:57;18.00;99.90
51655;DHT22;37732;53.106;7.030;2023-07-09T04:15:23;18.00;99.90
51655;DHT22;37732;53.106;7.030;2023-07-09T04:17:48;18.00;99.90
51655;DHT22;37732;53.106;7.030;2023-07-09T04:20:14;18.00;99.90
51655;DHT22;37732;53.106;7.030;2023-07-09T04:22:40;18.00;99.90
51655;DHT22;37732;53.106;7.030;2023-07-09T04:25:08;18.00;99.90
51655;DHT22;37732;53.106;7.030;2023-07-09T04:27:36;18.00;99.90
51655;DHT22;37732;53.106;7.030;2023-07-09T04:30:02;18.00;99.90
51655;DHT22;37732;53.106;7.030;2023-07-09T04:32:30;18.00;99.90
51655;DHT22;37732;53.106;7.030;2023-07-09T04:34:56;18.00;99.90
51655;DHT22;37732;53.106;7.030;2023-07-09T04:37:22;18.10;99.90
51655;DHT22;37732;53.106;7.030;2023-07-09T04:39:48;18.20;99.90
51655;DHT22;37732;53.106;7.030;2023-07-09T04:42:16;18.20;99.90
51655;DHT22;37732;53.106;7.030;2023-07-09T04:44:42;18.30;99.90
51655;DHT22;37732;53.106;7.030;2023-07-09T04:47:08;18.40;99.90
51655;DHT22;37732;53.106;7.030;2023-07-09T04:49:34;18.40;99.90
51655;DHT22;37732;53.106;7.030;2023-07-09T04:52:00;18.50;99.90
51655;DHT22;37732;53.106;7.030;2023-07-09T04:54:26;18.60;99.90
51655;DHT22;37732;53.106;7.030;2023-07-09T04:56:52;18.70;99.90
51655;DHT22;37732;53.106;7.030;2023-07-09T04:59:19;18.80;99.90
51655;DHT22;37732;53.106;7.030;2023-07-09T05:01:45;18.90;99.90
51655;DHT22;37732;53.106;7.030;2023-07-09T05:04:11;19.00;99.90
51655;DHT22;37732;53.106;7.030;2023-07-09T05:06:36;19.10;99.90
51655;DHT22;37732;53.106;7.030;2023-07-09T05:09:02;19.10;99.90
51655;DHT22;37732;53.106;7.030;2023-07-09T05:11:28;19.20;99.90
51655;DHT22;37732;53.106;7.030;2023-07-09T05:13:53;19.30;99.90
51655;DHT22;37732;53.106;7.030;2023-07-09T05:16:20;19.40;99.90
51655;DHT22;37732;53.106;7.030;2023-07-09T05:18:45;19.50;99.90
51655;DHT22;37732;53.106;7.030;2023-07-09T05:21:12;19.50;99.90
51655;DHT22;37732;53.106;7.030;2023-07-09T05:23:37;19.60;99.90
51655;DHT22;37732;53.106;7.030;2023-07-09T05:26:04;19.70;99.90
51655;DHT22;37732;53.106;7.030;2023-07-09T05:28:30;19.80;99.90
51655;DHT22;37732;53.106;7.030;2023-07-09T05:30:58;20.00;99.90
51655;DHT22;37732;53.106;7.030;2023-07-09T05:33:24;20.20;99.90
51655;DHT22;37732;53.106;7.030;2023-07-09T05:35:50;20.40;99.90
51655;DHT22;37732;53.106;7.030;2023-07-09T05:38:15;20.60;99.90
51655;DHT22;37732;53.106;7.030;2023-07-09T05:40:42;20.80;99.90
51655;DHT22;37732;53.106;7.030;2023-07-09T05:43:08;21.00;99.90
51655;DHT22;37732;53.106;7.030;2023-07-09T05:45:34;21.20;99.90
51655;DHT22;37732;53.106;7.030;2023-07-09T05:48:00;21.30;99.90
51655;DHT22;37732;53.106;7.030;2023-07-09T05:50:28;21.40;99.90
51655;DHT22;37732;53.106;7.030;2023-07-09T05:52:54;21.50;99.90
51655;DHT22;37732;53.106;7.030;2023-07-09T05:55:20;21.60;99.90
51655;DHT22;37732;53.106;7.030;2023-07-09T05:57:45;21.60;99.90
51655;DHT22;37732;53.106;7.030;2023-07-09T06:00:11;21.70;99.90
51655;DHT22;37732;53.106;7.030;2023-07-09T06:02:38;21.80;99.90
51655;DHT22;37732;53.106;7.030;2023-07-09T06:05:04;22.00;99.90
51655;DHT22;37732;53.106;7.030;2023-07-09T06:07:30;22.20;99.90
51655;DHT22;37732;53.106;7.030;2023-07-09T06:09:56;22.40;99.90
51655;DHT22;37732;53.106;7.030;2023-07-09T06:12:22;22.50;99.90
51655;DHT22;37732;53.106;7.030;2023-07-09T06:14:48;22.60;99.90
51655;DHT22;37732;53.106;7.030;2023-07-09T06:17:14;22.60;99.90
51655;DHT22;37732;53.106;7.030;2023-07-09T06:19:40;22.70;99.90
51655;DHT22;37732;53.106;7.030;2023-07-09T06:22:06;22.80;99.90
51655;DHT22;37732;53.106;7.030;2023-07-09T06:24:32;22.80;99.90
51655;DHT22;37732;53.106;7.030;2023-07-09T06:26:57;22.80;99.90
51655;DHT22;37732;53.106;7.030;2023-07-09T06:29:24;22.80;99.90
51655;DHT22;37732;53.106;7.030;2023-07-09T06:31:50;22.90;99.90
51655;DHT22;37732;53.106;7.030;2023-07-09T06:34:16;22.90;99.90
51655;DHT22;37732;53.106;7.030;2023-07-09T06:36:41;23.00;99.90
51655;DHT22;37732;53.106;7.030;2023-07-09T06:39:07;23.10;99.90
51655;DHT22;37732;53.106;7.030;2023-07-09T06:41:33;23.20;99.90
51655;DHT22;37732;53.106;7.030;2023-07-09T06:44:05;23.20;99.90
51655;DHT22;37732;53.106;7.030;2023-07-09T06:46:31;23.30;99.90
51655;DHT22;37732;53.106;7.030;2023-07-09T06:48:57;23.50;99.90
51655;DHT22;37732;53.106;7.030;2023-07-09T06:51:22;23.50;99.90
51655;DHT22;37732;53.106;7.030;2023-07-09T06:53:48;23.70;99.90
51655;DHT22;37732;53.106;7.030;2023-07-09T06:56:17;23.70;99.90
51655;DHT22;37732;53.106;7.030;2023-07-09T06:58:43;23.90;99.90
51655;DHT22;37732;53.106;7.030;2023-07-09T07:01:11;24.20;99.90
51655;DHT22;37732;53.106;7.030;2023-07-09T07:03:37;24.40;99.90
51655;DHT22;37732;53.106;7.030;2023-07-09T07:06:03;24.70;99.90
51655;DHT22;37732;53.106;7.030;2023-07-09T07:08:28;24.70;99.90
51655;DHT22;37732;53.106;7.030;2023-07-09T07:10:56;25.00;99.90
51655;DHT22;37732;53.106;7.030;2023-07-09T07:13:36;25.20;99.90
51655;DHT22;37732;53.106;7.030;2023-07-09T07:16:05;25.40;99.90
51655;DHT22;37732;53.106;7.030;2023-07-09T07:18:30;25.60;99.90
51655;DHT22;37732;53.106;7.030;2023-07-09T07:20:56;25.80;99.90
51655;DHT22;37732;53.106;7.030;2023-07-09T07:23:22;25.90;99.90
51655;DHT22;37732;53.106;7.030;2023-07-09T07:25:48;26.20;99.90
51655;DHT22;37732;53.106;7.030;2023-07-09T07:28:15;26.50;99.90
51655;DHT22;37732;53.106;7.030;2023-07-09T07:30:41;26.70;99.90
51655;DHT22;37732;53.106;7.030;2023-07-09T07:33:06;26.70;99.90
51655;DHT22;37732;53.106;7.030;2023-07-09T07:35:32;26.70;99.90
51655;DHT22;37732;53.106;7.030;2023-07-09T07:37:58;26.80;99.90
51655;DHT22;37732;53.106;7.030;2023-07-09T07:40:24;26.90;99.90
51655;DHT22;37732;53.106;7.030;2023-07-09T07:42:49;27.10;99.90
51655;DHT22;37732;53.106;7.030;2023-07-09T07:45:16;27.20;99.90
51655;DHT22;37732;53.106;7.030;2023-07-09T07:47:42;27.20;99.90
51655;DHT22;37732;53.106;7.030;2023-07-09T07:50:08;27.40;99.90
51655;DHT22;37732;53.106;7.030;2023-07-09T07:52:34;27.50;99.90
51655;DHT22;37732;53.106;7.030;2023-07-09T07:55:06;27.50;99.90
51655;DHT22;37732;53.106;7.030;2023-07-09T07:57:33;27.80;99.90
51655;DHT22;37732;53.106;7.030;2023-07-09T07:59:58;28.00;99.90
51655;DHT22;37732;53.106;7.030;2023-07-09T08:02:24;27.90;99.90
51655;DHT22;37732;53.106;7.030;2023-07-09T08:04:50;28.00;99.90
51655;DHT22;37732;53.106;7.030;2023-07-09T08:07:17;28.10;99.90
51655;DHT22;37732;53.106;7.030;2023-07-09T08:09:44;28.00;99.90
51655;DHT22;37732;53.106;7.030;2023-07-09T08:12:10;28.00;99.90
51655;DHT22;37732;53.106;7.030;2023-07-09T08:14:38;27.90;99.90
51655;DHT22;37732;53.106;7.030;2023-07-09T08:17:04;28.10;99.90
51655;DHT22;37732;53.106;7.030;2023-07-09T08:19:31;28.40;99.90
51655;DHT22;37732;53.106;7.030;2023-07-09T08:21:57;28.60;99.90
51655;DHT22;37732;53.106;7.030;2023-07-09T08:24:23;28.80;99.70
51655;DHT22;37732;53.106;7.030;2023-07-09T08:26:48;29.00;99.90
51655;DHT22;37732;53.106;7.030;2023-07-09T08:29:14;29.20;99.90
51655;DHT22;37732;53.106;7.030;2023-07-09T08:31:40;29.30;99.00
51655;DHT22;37732;53.106;7.030;2023-07-09T08:34:07;29.50;99.00
51655;DHT22;37732;53.106;7.030;2023-07-09T08:36:33;29.50;99.30
51655;DHT22;37732;53.106;7.030;2023-07-09T08:39:02;29.40;99.10
51655;DHT22;37732;53.106;7.030;2023-07-09T08:46:47;29.90;97.40
51655;DHT22;37732;53.106;7.030;2023-07-09T08:49:21;30.10;98.50
51655;DHT22;37732;53.106;7.030;2023-07-09T08:51:49;30.20;98.60
51655;DHT22;37732;53.106;7.030;2023-07-09T08:54:32;30.30;97.90
51655;DHT22;37732;53.106;7.030;2023-07-09T08:57:09;30.40;99.20
51655;DHT22;37732;53.106;7.030;2023-07-09T08:59:40;30.40;98.40
51655;DHT22;37732;53.106;7.030;2023-07-09T09:02:16;30.40;98.00
51655;DHT22;37732;53.106;7.030;2023-07-09T09:04:48;30.40;98.00
51655;DHT22;37732;53.106;7.030;2023-07-09T09:07:36;30.60;97.90
51655;DHT22;37732;53.106;7.030;2023-07-09T09:10:03;30.90;97.90
51655;DHT22;37732;53.106;7.030;2023-07-09T09:13:16;31.10;96.90
51655;DHT22;37732;53.106;7.030;2023-07-09T09:15:22;31.30;97.50
51655;DHT22;37732;53.106;7.030;2023-07-09T09:18:10;31.30;97.40
51655;DHT22;37732;53.106;7.030;2023-07-09T09:20:37;31.50;96.50
51655;DHT22;37732;53.106;7.030;2023-07-09T09:25:33;31.50;96.30
51655;DHT22;37732;53.106;7.030;2023-07-09T09:28:01;31.80;95.60
51655;DHT22;37732;53.106;7.030;2023-07-09T09:30:28;32.00;95.20
51655;DHT22;37732;53.106;7.030;2023-07-09T09:35:32;31.90;94.60
51655;DHT22;37732;53.106;7.030;2023-07-09T09:37:59;32.00;93.10
51655;DHT22;37732;53.106;7.030;2023-07-09T09:40:27;32.00;94.20
51655;DHT22;37732;53.106;7.030;2023-07-09T09:42:55;32.20;94.50
51655;DHT22;37732;53.106;7.030;2023-07-09T09:45:28;32.20;92.40
51655;DHT22;37732;53.106;7.030;2023-07-09T09:48:00;32.40;92.80
51655;DHT22;37732;53.106;7.030;2023-07-09T09:51:15;32.40;89.80
51655;DHT22;37732;53.106;7.030;2023-07-09T09:53:48;32.40;91.70
51655;DHT22;37732;53.106;7.030;2023-07-09T09:56:18;32.50;92.40
51655;DHT22;37732;53.106;7.030;2023-07-09T09:58:44;32.80;93.10
51655;DHT22;37732;53.106;7.030;2023-07-09T10:01:17;33.10;93.20
51655;DHT22;37732;53.106;7.030;2023-07-09T10:03:43;33.10;90.40
51655;DHT22;37732;53.106;7.030;2023-07-09T10:08:05;33.10;91.70
51655;DHT22;37732;53.106;7.030;2023-07-09T10:10:33;33.20;91.50
51655;DHT22;37732;53.106;7.030;2023-07-09T10:18:58;33.50;90.10
51655;DHT22;37732;53.106;7.030;2023-07-09T10:21:37;33.60;87.20
51655;DHT22;37732;53.106;7.030;2023-07-09T10:26:45;33.70;89.60
51655;DHT22;37732;53.106;7.030;2023-07-09T10:35:05;34.00;86.40
51655;DHT22;37732;53.106;7.030;2023-07-09T10:37:48;34.20;88.30
51655;DHT22;37732;53.106;7.030;2023-07-09T10:40:28;34.30;87.10
51655;DHT22;37732;53.106;7.030;2023-07-09T10:42:59;34.40;85.10
51655;DHT22;37732;53.106;7.030;2023-07-09T10:45:39;34.50;84.30
51655;DHT22;37732;53.106;7.030;2023-07-09T10:48:18;34.50;84.70
51655;DHT22;37732;53.106;7.030;2023-07-09T10:50:54;34.70;82.80
51655;DHT22;37732;53.106;7.030;2023-07-09T10:53:33;34.80;82.80
51655;DHT22;37732;53.106;7.030;2023-07-09T10:56:14;34.80;80.00
51655;DHT22;37732;53.106;7.030;2023-07-09T10:58:57;35.00;81.00
51655;DHT22;37732;53.106;7.030;2023-07-09T11:01:32;35.20;80.20
51655;DHT22;37732;53.106;7.030;2023-07-09T11:04:04;35.20;78.10
51655;DHT22;37732;53.106;7.030;2023-07-09T11:06:44;35.30;76.20
51655;DHT22;37732;53.106;7.030;2023-07-09T11:11:48;35.30;74.50
51655;DHT22;37732;53.106;7.030;2023-07-09T11:14:32;35.40;74.00
51655;DHT22;37732;53.106;7.030;2023-07-09T11:17:00;35.40;73.30
51655;DHT22;37732;53.106;7.030;2023-07-09T11:19:27;35.50;74.30
51655;DHT22;37732;53.106;7.030;2023-07-09T11:22:04;35.50;74.50
51655;DHT22;37732;53.106;7.030;2023-07-09T11:24:33;35.80;72.50
51655;DHT22;37732;53.106;7.030;2023-07-09T11:26:59;35.80;69.60
51655;DHT22;37732;53.106;7.030;2023-07-09T11:29:26;35.60;68.20
51655;DHT22;37732;53.106;7.030;2023-07-09T11:31:54;35.50;69.40
51655;DHT22;37732;53.106;7.030;2023-07-09T11:34:27;35.60;68.90
51655;DHT22;37732;53.106;7.030;2023-07-09T11:37:00;35.90;70.80
51655;DHT22;37732;53.106;7.030;2023-07-09T11:42:52;36.20;68.30
51655;DHT22;37732;53.106;7.030;2023-07-09T11:45:35;36.40;68.50
51655;DHT22;37732;53.106;7.030;2023-07-09T11:48:15;36.60;69.20
51655;DHT22;37732;53.106;7.030;2023-07-09T11:50:49;36.90;69.40
51655;DHT22;37732;53.106;7.030;2023-07-09T11:53:36;37.10;68.40
51655;DHT22;37732;53.106;7.030;2023-07-09T11:56:03;37.20;67.20
51655;DHT22;37732;53.106;7.030;2023-07-09T11:58:29;37.10;66.00
51655;DHT22;37732;53.106;7.030;2023-07-09T12:00:57;37.20;65.50
51655;DHT22;37732;53.106;7.030;2023-07-09T12:03:43;37.30;65.70
51655;DHT22;37732;53.106;7.030;2023-07-09T12:06:21;37.30;65.40
51655;DHT22;37732;53.106;7.030;2023-07-09T12:08:48;37.40;64.80
51655;DHT22;37732;53.106;7.030;2023-07-09T12:11:23;37.50;65.40
51655;DHT22;37732;53.106;7.030;2023-07-09T12:13:50;37.60;63.80
51655;DHT22;37732;53.106;7.030;2023-07-09T12:16:40;37.50;63.90
51655;DHT22;37732;53.106;7.030;2023-07-09T12:19:06;37.30;61.00
51655;DHT22;37732;53.106;7.030;2023-07-09T12:21:36;36.90;60.00
51655;DHT22;37732;53.106;7.030;2023-07-09T12:24:02;37.00;61.50
51655;DHT22;37732;53.106;7.030;2023-07-09T12:26:31;37.00;60.60
51655;DHT22;37732;53.106;7.030;2023-07-09T12:28:57;36.90;59.90
51655;DHT22;37732;53.106;7.030;2023-07-09T12:31:29;36.90;59.60
51655;DHT22;37732;53.106;7.030;2023-07-09T12:33:57;36.80;58.30
51655;DHT22;37732;53.106;7.030;2023-07-09T12:36:25;36.60;60.10
51655;DHT22;37732;53.106;7.030;2023-07-09T12:38:55;36.80;61.10
51655;DHT22;37732;53.106;7.030;2023-07-09T12:41:26;36.80;59.90
51655;DHT22;37732;53.106;7.030;2023-07-09T12:43:54;36.70;57.50
51655;DHT22;37732;53.106;7.030;2023-07-09T12:46:24;36.80;58.80
51655;DHT22;37732;53.106;7.030;2023-07-09T12:48:50;37.00;59.20
51655;DHT22;37732;53.106;7.030;2023-07-09T12:51:22;37.10;58.80
51655;DHT22;37732;53.106;7.030;2023-07-09T12:54:01;37.20;57.40
51655;DHT22;37732;53.106;7.030;2023-07-09T12:56:28;37.30;58.00
51655;DHT22;37732;53.106;7.030;2023-07-09T12:58:57;37.10;58.00
51655;DHT22;37732;53.106;7.030;2023-07-09T13:01:23;37.20;58.40
51655;DHT22;37732;53.106;7.030;2023-07-09T13:03:57;37.10;58.20
51655;DHT22;37732;53.106;7.030;2023-07-09T13:06:34;37.20;57.00
51655;DHT22;37732;53.106;7.030;2023-07-09T13:09:01;37.10;57.10
51655;DHT22;37732;53.106;7.030;2023-07-09T13:11:35;37.10;57.00
51655;DHT22;37732;53.106;7.030;2023-07-09T13:14:05;37.30;57.80
51655;DHT22;37732;53.106;7.030;2023-07-09T13:16:38;37.50;57.40
51655;DHT22;37732;53.106;7.030;2023-07-09T13:19:05;37.40;56.30
51655;DHT22;37732;53.106;7.030;2023-07-09T13:21:31;37.30;56.40
51655;DHT22;37732;53.106;7.030;2023-07-09T13:23:58;37.00;54.70
51655;DHT22;37732;53.106;7.030;2023-07-09T13:26:24;36.90;56.20
51655;DHT22;37732;53.106;7.030;2023-07-09T13:28:50;36.90;56.80
51655;DHT22;37732;53.106;7.030;2023-07-09T13:31:19;36.70;56.70
51655;DHT22;37732;53.106;7.030;2023-07-09T13:33:50;36.60;56.00
51655;DHT22;37732;53.106;7.030;2023-07-09T13:36:18;36.50;56.30
51655;DHT22;37732;53.106;7.030;2023-07-09T13:38:43;36.40;58.40
51655;DHT22;37732;53.106;7.030;2023-07-09T13:41:17;36.20;58.00
51655;DHT22;37732;53.106;7.030;2023-07-09T13:43:45;36.10;60.40
51655;DHT22;37732;53.106;7.030;2023-07-09T13:46:12;36.10;60.20
51655;DHT22;37732;53.106;7.030;2023-07-09T13:48:39;36.00;59.50
51655;DHT22;37732;53.106;7.030;2023-07-09T13:51:20;36.00;59.50
51655;DHT22;37732;53.106;7.030;2023-07-09T13:53:49;36.10;59.80
51655;DHT22;37732;53.106;7.030;2023-07-09T13:56:15;36.00;60.60
51655;DHT22;37732;53.106;7.030;2023-07-09T13:58:41;36.10;60.40
51655;DHT22;37732;53.106;7.030;2023-07-09T14:01:14;35.90;61.00
51655;DHT22;37732;53.106;7.030;2023-07-09T14:03:41;35.90;61.40
51655;DHT22;37732;53.106;7.030;2023-07-09T14:06:15;35.90;62.80
51655;DHT22;37732;53.106;7.030;2023-07-09T14:08:41;36.00;61.80
51655;DHT22;37732;53.106;7.030;2023-07-09T14:11:11;35.90;61.90
51655;DHT22;37732;53.106;7.030;2023-07-09T14:13:38;35.90;62.30
51655;DHT22;37732;53.106;7.030;2023-07-09T14:16:04;35.80;62.60
51655;DHT22;37732;53.106;7.030;2023-07-09T14:18:30;35.80;62.50
51655;DHT22;37732;53.106;7.030;2023-07-09T14:20:56;35.70;62.90
51655;DHT22;37732;53.106;7.030;2023-07-09T14:23:22;35.70;63.60
51655;DHT22;37732;53.106;7.030;2023-07-09T14:25:48;35.60;63.80
51655;DHT22;37732;53.106;7.030;2023-07-09T14:28:18;35.50;63.80
51655;DHT22;37732;53.106;7.030;2023-07-09T14:30:45;35.50;64.40
51655;DHT22;37732;53.106;7.030;2023-07-09T14:33:15;35.50;64.40
51655;DHT22;37732;53.106;7.030;2023-07-09T14:35:41;35.50;64.30
51655;DHT22;37732;53.106;7.030;2023-07-09T14:38:26;35.40;64.80
51655;DHT22;37732;53.106;7.030;2023-07-09T14:40:56;35.40;63.50
51655;DHT22;37732;53.106;7.030;2023-07-09T14:43:25;35.40;63.60
51655;DHT22;37732;53.106;7.030;2023-07-09T14:45:50;35.30;65.00
51655;DHT22;37732;53.106;7.030;2023-07-09T14:48:19;35.30;65.60
51655;DHT22;37732;53.106;7.030;2023-07-09T14:50:45;35.10;65.00
51655;DHT22;37732;53.106;7.030;2023-07-09T14:53:24;34.90;65.60
51655;DHT22;37732;53.106;7.030;2023-07-09T14:55:51;34.80;66.80
51655;DHT22;37732;53.106;7.030;2023-07-09T14:58:19;34.70;66.60
51655;DHT22;37732;53.106;7.030;2023-07-09T15:00:45;34.60;66.50
51655;DHT22;37732;53.106;7.030;2023-07-09T15:03:32;34.40;67.00
51655;DHT22;37732;53.106;7.030;2023-07-09T15:05:58;34.30;68.20
51655;DHT22;37732;53.106;7.030;2023-07-09T15:08:25;34.10;68.30
51655;DHT22;37732;53.106;7.030;2023-07-09T15:10:53;33.90;67.90
51655;DHT22;37732;53.106;7.030;2023-07-09T15:13:38;33.80;67.40
51655;DHT22;37732;53.106;7.030;2023-07-09T15:16:04;33.70;67.40
51655;DHT22;37732;53.106;7.030;2023-07-09T15:18:30;33.50;67.60
51655;DHT22;37732;53.106;7.030;2023-07-09T15:21:00;33.40;68.10
51655;DHT22;37732;53.106;7.030;2023-07-09T15:23:27;33.30;67.60
51655;DHT22;37732;53.106;7.030;2023-07-09T15:25:54;33.20;69.60
51655;DHT22;37732;53.106;7.030;2023-07-09T15:28:20;32.90;70.90
51655;DHT22;37732;53.106;7.030;2023-07-09T15:30:46;32.80;72.20
51655;DHT22;37732;53.106;7.030;2023-07-09T15:33:14;32.70;72.20
51655;DHT22;37732;53.106;7.030;2023-07-09T15:35:41;32.60;72.60
51655;DHT22;37732;53.106;7.030;2023-07-09T15:40:42;32.40;74.60
51655;DHT22;37732;53.106;7.030;2023-07-09T15:43:08;32.30;75.20
51655;DHT22;37732;53.106;7.030;2023-07-09T15:45:41;32.20;75.50
51655;DHT22;37732;53.106;7.030;2023-07-09T15:48:26;32.10;76.80
51655;DHT22;37732;53.106;7.030;2023-07-09T15:50:52;32.00;77.60
51655;DHT22;37732;53.106;7.030;2023-07-09T15:53:21;31.80;78.00
51655;DHT22;37732;53.106;7.030;2023-07-09T15:55:47;31.80;79.10
51655;DHT22;37732;53.106;7.030;2023-07-09T15:58:21;31.60;80.90
51655;DHT22;37732;53.106;7.030;2023-07-09T16:00:49;31.20;76.60
51655;DHT22;37732;53.106;7.030;2023-07-09T16:03:15;30.40;72.30
51655;DHT22;37732;53.106;7.030;2023-07-09T16:05:41;29.10;68.20
51655;DHT22;37732;53.106;7.030;2023-07-09T16:08:06;28.30;69.30
51655;DHT22;37732;53.106;7.030;2023-07-09T16:10:33;27.00;71.20
51655;DHT22;37732;53.106;7.030;2023-07-09T16:12:59;27.00;72.30
51655;DHT22;37732;53.106;7.030;2023-07-09T16:15:25;26.70;73.30
51655;DHT22;37732;53.106;7.030;2023-07-09T16:17:51;26.50;74.90
51655;DHT22;37732;53.106;7.030;2023-07-09T16:20:21;26.30;74.00
51655;DHT22;37732;53.106;7.030;2023-07-09T16:22:53;26.10;73.30